sensor_id;sensor_type;location;lat;lon;timestamp;pressure;altitude;pressure_sealevel;temperature;humidity
80640;BME280;69992;60.170;24.692;2024-01-10T00:00:38;101955.84;;;-5.67;34.45
80640;BME280;69992;60.170;24.692;2024-01-10T00:03:04;101960.44;;;-5.49;34.34
80640;BME280;69992;60.170;24.692;2024-01-10T00:05:29;101968.94;;;-4.55;34.34
80640;BME280;69992;60.170;24.692;2024-01-10T00:07:57;101973.41;;;-6.56;34.36
80640;BME280;69992;60.170;24.692;2024-01-10T00:10:20;101975.97;;;-4.61;34.37
80640;BME280;69992;60.170;24.692;2024-01-10T00:12:45;101981.29;;;-4.64;34.39
80640;BME280;69992;60.170;24.692;2024-01-10T00:15:11;101985.13;;;-4.84;34.47
80640;BME280;69992;60.170;24.692;2024-01-10T00:17:36;101982.58;;;-4.81;34.41
80640;BME280;69992;60.170;24.692;2024-01-10T00:20:02;101983.38;;;-4.81;34.38
80640;BME280;69992;60.170;24.692;2024-01-10T00:22:26;101986.52;;;-5.77;34.36
80640;BME280;69992;60.170;24.692;2024-01-10T00:24:52;101985.13;;;-4.77;34.37
80640;BME280;69992;60.170;24.692;2024-01-10T00:27:17;101986.44;;;-4.78;34.35
80640;BME280;69992;60.170;24.692;2024-01-10T00:29:43;101983.69;;;-4.81;34.35
80640;BME280;69992;60.170;24.692;2024-01-10T00:32:08;101982.33;;;-4.80;34.33
80640;BME280;69992;60.170;24.692;2024-01-10T00:34:34;101981.29;;;-4.96;34.38
80640;BME280;69992;60.170;24.692;2024-01-10T00:36:59;101979.61;;;-5.05;34.40
80640;BME280;69992;60.170;24.692;2024-01-10T00:39:26;101973.46;;;-5.01;34.36
80640;BME280;69992;60.170;24.692;2024-01-10T00:41:53;101965.98;;;-5.07;34.38
80640;BME280;69992;60.170;24.692;2024-01-10T00:44:16;101958.38;;;-5.12;34.38
80640;BME280;69992;60.170;24.692;2024-01-10T00:46:41;101951.51;;;-7.07;34.39
80640;BME280;69992;60.170;24.692;2024-01-10T00:49:06;101947.10;;;-4.95;34.27
80640;BME280;69992;60.170;24.692;2024-01-10T00:51:32;101946.56;;;-4.86;34.24
80640;BME280;69992;60.170;24.692;2024-01-10T00:53:57;101953.71;;;-4.85;34.24
80640;BME280;69992;60.170;24.692;2024-01-10T00:56:22;101965.09;;;-4.73;34.21
80640;BME280;69992;60.170;24.692;2024-01-10T00:58:48;101967.34;;;-4.85;34.26
80640;BME280;69992;60.170;24.692;2024-01-10T01:01:13;101969.75;;;-4.93;34.29
80640;BME280;69992;60.170;24.692;2024-01-10T01:03:39;101978.21;;;-4.82;34.26
80640;BME280;69992;60.170;24.692;2024-01-10T01:06:04;101984.50;;;-4.79;34.23
80640;BME280;69992;60.170;24.692;2024-01-10T01:08:30;101982.81;;;-4.78;34.23
80640;BME280;69992;60.170;24.692;2024-01-10T01:10:55;101977.46;;;-4.78;34.25
80640;BME280;69992;60.170;24.692;2024-01-10T01:13:20;101976.37;;;-4.88;34.28
80640;BME280;69992;60.170;24.692;2024-01-10T01:15:45;101982.86;;;-4.99;34.36
80640;BME280;69992;60.170;24.692;2024-01-10T01:18:14;101982.13;;;-5.00;34.36
80640;BME280;69992;60.170;24.692;2024-01-10T01:20:36;101982.22;;;-4.88;34.33
80640;BME280;69992;60.170;24.692;2024-01-10T01:23:02;101980.01;;;-4.73;34.28
80640;BME280;69992;60.170;24.692;2024-01-10T01:25:27;101973.93;;;-4.58;34.23
80640;BME280;69992;60.170;24.692;2024-01-10T01:27:53;101982.74;;;-4.51;34.29
80640;BME280;69992;60.170;24.692;2024-01-10T01:30:18;101997.98;;;-4.63;34.29
80640;BME280;69992;60.170;24.692;2024-01-10T01:32:44;102000.94;;;-4.56;34.28
80640;BME280;69992;60.170;24.692;2024-01-10T01:35:09;101994.41;;;-4.45;34.25
80640;BME280;69992;60.170;24.692;2024-01-10T01:37:34;101995.81;;;-5.29;34.21
80640;BME280;69992;60.170;24.692;2024-01-10T01:40:00;101995.48;;;-6.24;34.17
80640;BME280;69992;60.170;24.692;2024-01-10T01:42:26;101997.68;;;-4.32;34.18
80640;BME280;69992;60.170;24.692;2024-01-10T01:44:50;102003.62;;;-5.44;34.25
80640;BME280;69992;60.170;24.692;2024-01-10T01:47:16;101999.30;;;-4.46;34.27
80640;BME280;69992;60.170;24.692;2024-01-10T01:49:42;101990.63;;;-3.62;34.32
80640;BME280;69992;60.170;24.692;2024-01-10T01:52:07;101984.63;;;-4.63;34.33
80640;BME280;69992;60.170;24.692;2024-01-10T01:54:33;101986.83;;;-4.71;34.35
80640;BME280;69992;60.170;24.692;2024-01-10T01:56:58;101984.93;;;-4.59;34.32
80640;BME280;69992;60.170;24.692;2024-01-10T01:59:23;101982.60;;;-4.59;34.31
80640;BME280;69992;60.170;24.692;2024-01-10T02:01:49;101977.91;;;-5.50;34.29
80640;BME280;69992;60.170;24.692;2024-01-10T02:04:14;101980.51;;;-5.45;34.28
80640;BME280;69992;60.170;24.692;2024-01-10T02:06:39;101980.87;;;-6.51;34.30
80640;BME280;69992;60.170;24.692;2024-01-10T02:09:04;101980.99;;;-4.61;34.31
80640;BME280;69992;60.170;24.692;2024-01-10T02:11:31;101982.29;;;-4.71;34.35
80640;BME280;69992;60.170;24.692;2024-01-10T02:13:55;101977.11;;;-4.69;34.35
80640;BME280;69992;60.170;24.692;2024-01-10T02:16:21;101968.83;;;-4.54;34.30
80640;BME280;69992;60.170;24.692;2024-01-10T02:18:46;101974.94;;;-4.53;34.29
80640;BME280;69992;60.170;24.692;2024-01-10T02:21:12;101971.84;;;-4.67;34.34
80640;BME280;69992;60.170;24.692;2024-01-10T02:23:37;101967.93;;;-5.70;34.37
80640;BME280;69992;60.170;24.692;2024-01-10T02:26:03;101960.71;;;-5.73;34.37
80640;BME280;69992;60.170;24.692;2024-01-10T02:28:27;101957.50;;;-4.71;34.36
80640;BME280;69992;60.170;24.692;2024-01-10T02:30:57;101956.29;;;-4.58;34.31
80640;BME280;69992;60.170;24.692;2024-01-10T02:33:19;101955.01;;;-5.43;34.27
80640;BME280;69992;60.170;24.692;2024-01-10T02:35:45;101957.40;;;-5.26;34.22
80640;BME280;69992;60.170;24.692;2024-01-10T02:38:11;101955.57;;;-4.25;34.21
80640;BME280;69992;60.170;24.692;2024-01-10T02:40:36;101951.99;;;-4.22;34.18
80640;BME280;69992;60.170;24.692;2024-01-10T02:43:02;101955.36;;;-4.32;34.21
80640;BME280;69992;60.170;24.692;2024-01-10T02:45:27;101953.92;;;-4.38;34.22
80640;BME280;69992;60.170;24.692;2024-01-10T02:47:52;101948.69;;;-5.58;34.29
80640;BME280;69992;60.170;24.692;2024-01-10T02:50:18;101945.42;;;-4.71;34.36
80640;BME280;69992;60.170;24.692;2024-01-10T02:52:43;101941.81;;;-4.81;34.39
80640;BME280;69992;60.170;24.692;2024-01-10T02:55:08;101935.60;;;-4.85;34.38
80640;BME280;69992;60.170;24.692;2024-01-10T02:57:34;101931.77;;;-4.89;34.38
80640;BME280;69992;60.170;24.692;2024-01-10T02:59:59;101937.76;;;-4.87;34.38
80640;BME280;69992;60.170;24.692;2024-01-10T03:02:25;101946.28;;;-4.74;34.35
80640;BME280;69992;60.170;24.692;2024-01-10T03:04:50;101941.30;;;-4.61;34.33
80640;BME280;69992;60.170;24.692;2024-01-10T03:07:16;101941.53;;;-5.43;34.29
80640;BME280;69992;60.170;24.692;2024-01-10T03:09:41;101941.48;;;-4.45;34.25
80640;BME280;69992;60.170;24.692;2024-01-10T03:12:07;101945.55;;;-4.53;34.26
80640;BME280;69992;60.170;24.692;2024-01-10T03:14:33;101945.00;;;-4.59;34.29
80640;BME280;69992;60.170;24.692;2024-01-10T03:16:57;101946.32;;;-4.47;34.26
80640;BME280;69992;60.170;24.692;2024-01-10T03:19:22;101948.08;;;-5.39;34.23
80640;BME280;69992;60.170;24.692;2024-01-10T03:21:48;101948.00;;;-4.46;34.24
80640;BME280;69992;60.170;24.692;2024-01-10T03:24:13;101948.07;;;-5.52;34.26
80640;BME280;69992;60.170;24.692;2024-01-10T03:26:39;101942.98;;;-5.59;34.28
80640;BME280;69992;60.170;24.692;2024-01-10T03:29:04;101950.49;;;-4.61;34.30
80640;BME280;69992;60.170;24.692;2024-01-10T03:31:30;101957.92;;;-4.56;34.28
80640;BME280;69992;60.170;24.692;2024-01-10T03:33:55;101956.70;;;-4.67;34.31
80640;BME280;69992;60.170;24.692;2024-01-10T03:36:20;101946.15;;;-4.64;34.32
80640;BME280;69992;60.170;24.692;2024-01-10T03:38:46;101936.45;;;-4.49;34.29
80640;BME280;69992;60.170;24.692;2024-01-10T03:41:13;101934.33;;;-5.27;34.22
80640;BME280;69992;60.170;24.692;2024-01-10T03:43:36;101942.08;;;-4.18;34.16
80640;BME280;69992;60.170;24.692;2024-01-10T03:46:02;101950.07;;;-4.25;34.16
80640;BME280;69992;60.170;24.692;2024-01-10T03:48:27;101951.29;;;-4.35;34.21
80640;BME280;69992;60.170;24.692;2024-01-10T03:50:53;101950.42;;;-5.26;34.21
80640;BME280;69992;60.170;24.692;2024-01-10T03:53:18;101962.15;;;-4.49;34.24
80640;BME280;69992;60.170;24.692;2024-01-10T03:55:44;101971.63;;;-4.63;34.29
80640;BME280;69992;60.170;24.692;2024-01-10T03:58:09;101972.87;;;-6.61;34.30
80640;BME280;69992;60.170;24.692;2024-01-10T04:00:34;101966.91;;;-4.66;34.33
80640;BME280;69992;60.170;24.692;2024-01-10T04:02:59;101954.85;;;-4.64;34.30
80640;BME280;69992;60.170;24.692;2024-01-10T04:05:26;101946.07;;;-6.45;34.27
80640;BME280;69992;60.170;24.692;2024-01-10T04:08:00;101940.63;;;-5.26;34.21
80640;BME280;69992;60.170;24.692;2024-01-10T04:10:16;101932.31;;;-4.12;34.16
80640;BME280;69992;60.170;24.692;2024-01-10T04:12:41;101926.90;;;-6.22;34.17
80640;BME280;69992;60.170;24.692;2024-01-10T04:15:07;101930.01;;;-4.23;34.17
80640;BME280;69992;60.170;24.692;2024-01-10T04:17:32;101931.46;;;-5.14;34.15
80640;BME280;69992;60.170;24.692;2024-01-10T04:19:58;101932.91;;;-5.07;34.12
80640;BME280;69992;60.170;24.692;2024-01-10T04:22:26;101938.33;;;-5.12;34.11
80640;BME280;69992;60.170;24.692;2024-01-10T04:24:49;101942.61;;;-4.29;34.17
80640;BME280;69992;60.170;24.692;2024-01-10T04:27:14;101941.37;;;-4.38;34.18
80640;BME280;69992;60.170;24.692;2024-01-10T04:29:39;101939.16;;;-4.34;34.20
80640;BME280;69992;60.170;24.692;2024-01-10T04:32:06;101936.82;;;-4.29;34.18
80640;BME280;69992;60.170;24.692;2024-01-10T04:34:31;101942.91;;;-6.43;34.24
80640;BME280;69992;60.170;24.692;2024-01-10T04:36:57;101946.29;;;-4.66;34.27
80640;BME280;69992;60.170;24.692;2024-01-10T04:39:22;101951.88;;;-4.74;34.29
80640;BME280;69992;60.170;24.692;2024-01-10T04:41:48;101951.44;;;-4.80;34.30
80640;BME280;69992;60.170;24.692;2024-01-10T04:44:14;101945.69;;;-4.85;34.33
80640;BME280;69992;60.170;24.692;2024-01-10T04:46:40;101947.22;;;-5.01;34.36
80640;BME280;69992;60.170;24.692;2024-01-10T04:49:05;101949.24;;;-4.94;34.36
80640;BME280;69992;60.170;24.692;2024-01-10T04:51:31;101945.43;;;-5.90;34.32
80640;BME280;69992;60.170;24.692;2024-01-10T04:53:57;101937.88;;;-4.71;34.30
80640;BME280;69992;60.170;24.692;2024-01-10T04:56:22;101936.03;;;-4.54;34.23
80640;BME280;69992;60.170;24.692;2024-01-10T04:58:47;101944.86;;;-4.37;34.17
80640;BME280;69992;60.170;24.692;2024-01-10T05:01:13;101955.55;;;-4.22;34.13
80640;BME280;69992;60.170;24.692;2024-01-10T05:03:39;101962.68;;;-4.21;34.12
80640;BME280;69992;60.170;24.692;2024-01-10T05:06:05;101966.96;;;-5.14;34.12
80640;BME280;69992;60.170;24.692;2024-01-10T05:08:31;101966.68;;;-6.03;34.09
80640;BME280;69992;60.170;24.692;2024-01-10T05:10:56;101972.12;;;-4.01;34.05
80640;BME280;69992;60.170;24.692;2024-01-10T05:13:22;101976.18;;;-3.97;34.04
80640;BME280;69992;60.170;24.692;2024-01-10T05:15:48;101976.12;;;-6.11;34.08
80640;BME280;69992;60.170;24.692;2024-01-10T05:18:15;101964.22;;;-6.20;34.12
80640;BME280;69992;60.170;24.692;2024-01-10T05:20:40;101960.39;;;-5.40;34.15
80640;BME280;69992;60.170;24.692;2024-01-10T05:23:09;101965.22;;;-4.38;34.16
80640;BME280;69992;60.170;24.692;2024-01-10T05:25:31;101971.69;;;-5.22;34.12
80640;BME280;69992;60.170;24.692;2024-01-10T05:27:57;101966.71;;;-4.12;34.07
80640;BME280;69992;60.170;24.692;2024-01-10T05:30:23;101961.91;;;-3.99;34.01
80640;BME280;69992;60.170;24.692;2024-01-10T05:32:49;101951.93;;;-4.07;34.06
80640;BME280;69992;60.170;24.692;2024-01-10T05:35:18;101943.46;;;-4.14;34.07
80640;BME280;69992;60.170;24.692;2024-01-10T05:37:40;101950.34;;;-5.13;34.10
80640;BME280;69992;60.170;24.692;2024-01-10T05:40:07;101953.10;;;-4.04;34.07
80640;BME280;69992;60.170;24.692;2024-01-10T05:42:31;101950.89;;;-4.95;34.06
80640;BME280;69992;60.170;24.692;2024-01-10T05:44:57;101943.61;;;-3.89;34.04
80640;BME280;69992;60.170;24.692;2024-01-10T05:47:24;101941.86;;;-4.76;34.02
80640;BME280;69992;60.170;24.692;2024-01-10T05:49:49;101940.45;;;-5.81;34.04
80640;BME280;69992;60.170;24.692;2024-01-10T05:52:15;101941.55;;;-3.82;34.04
80640;BME280;69992;60.170;24.692;2024-01-10T05:54:40;101941.71;;;-5.65;34.00
80640;BME280;69992;60.170;24.692;2024-01-10T05:57:06;101937.38;;;-4.65;33.99
80640;BME280;69992;60.170;24.692;2024-01-10T05:59:32;101936.02;;;-5.59;33.99
80640;BME280;69992;60.170;24.692;2024-01-10T06:01:58;101932.63;;;-4.65;33.97
80640;BME280;69992;60.170;24.692;2024-01-10T06:04:24;101932.44;;;-3.69;33.99
80640;BME280;69992;60.170;24.692;2024-01-10T06:06:49;101935.08;;;-4.60;34.00
80640;BME280;69992;60.170;24.692;2024-01-10T06:09:15;101934.89;;;-4.50;33.97
80640;BME280;69992;60.170;24.692;2024-01-10T06:11:41;101943.13;;;-5.42;33.96
80640;BME280;69992;60.170;24.692;2024-01-10T06:14:07;101937.89;;;-3.41;33.97
80640;BME280;69992;60.170;24.692;2024-01-10T06:16:33;101936.67;;;-5.31;33.95
80640;BME280;69992;60.170;24.692;2024-01-10T06:18:59;101927.88;;;-4.27;33.93
80640;BME280;69992;60.170;24.692;2024-01-10T06:21:24;101924.15;;;-3.24;33.92
80640;BME280;69992;60.170;24.692;2024-01-10T06:23:50;101919.90;;;-4.25;33.92
80640;BME280;69992;60.170;24.692;2024-01-10T06:26:26;101916.54;;;-4.23;33.92
80640;BME280;69992;60.170;24.692;2024-01-10T06:28:44;101908.84;;;-5.15;33.90
80640;BME280;69992;60.170;24.692;2024-01-10T06:31:07;101902.55;;;-5.06;33.88
80640;BME280;69992;60.170;24.692;2024-01-10T06:33:32;101897.93;;;-5.06;33.89
80640;BME280;69992;60.170;24.692;2024-01-10T06:35:58;101891.27;;;-5.10;33.89
80640;BME280;69992;60.170;24.692;2024-01-10T06:38:23;101884.92;;;-5.10;33.88
80640;BME280;69992;60.170;24.692;2024-01-10T06:40:48;101884.74;;;-4.03;33.86
80640;BME280;69992;60.170;24.692;2024-01-10T06:43:14;101885.60;;;-4.01;33.90
80640;BME280;69992;60.170;24.692;2024-01-10T06:45:39;101880.57;;;-4.59;33.98
80640;BME280;69992;60.170;24.692;2024-01-10T06:48:05;101874.76;;;-2.48;33.88
80640;BME280;69992;60.170;24.692;2024-01-10T06:50:30;101871.37;;;-4.36;33.85
80640;BME280;69992;60.170;24.692;2024-01-10T06:52:58;101865.81;;;-4.32;33.84
80640;BME280;69992;60.170;24.692;2024-01-10T06:55:21;101864.38;;;-4.30;33.83
80640;BME280;69992;60.170;24.692;2024-01-10T06:57:47;101855.00;;;-4.33;33.83
80640;BME280;69992;60.170;24.692;2024-01-10T07:00:14;101852.95;;;-4.41;33.84
80640;BME280;69992;60.170;24.692;2024-01-10T07:02:38;101855.34;;;-4.52;33.87
80640;BME280;69992;60.170;24.692;2024-01-10T07:05:07;101855.63;;;-4.71;33.91
80640;BME280;69992;60.170;24.692;2024-01-10T07:07:30;101858.19;;;-4.86;33.95
80640;BME280;69992;60.170;24.692;2024-01-10T07:09:55;101862.72;;;-4.87;33.97
80640;BME280;69992;60.170;24.692;2024-01-10T07:12:21;101865.17;;;-3.87;33.96
80640;BME280;69992;60.170;24.692;2024-01-10T07:14:46;101861.71;;;-4.82;33.95
80640;BME280;69992;60.170;24.692;2024-01-10T07:17:12;101855.59;;;-4.78;33.95
80640;BME280;69992;60.170;24.692;2024-01-10T07:19:37;101853.60;;;-4.72;33.91
80640;BME280;69992;60.170;24.692;2024-01-10T07:22:03;101853.83;;;-4.78;33.94
80640;BME280;69992;60.170;24.692;2024-01-10T07:24:28;101849.87;;;-4.81;33.93
80640;BME280;69992;60.170;24.692;2024-01-10T07:26:53;101856.82;;;-4.94;33.96
80640;BME280;69992;60.170;24.692;2024-01-10T07:29:19;101862.62;;;-4.07;33.96
80640;BME280;69992;60.170;24.692;2024-01-10T07:31:48;101859.16;;;-4.29;34.06
80640;BME280;69992;60.170;24.692;2024-01-10T07:34:11;101861.30;;;-5.36;34.09
80640;BME280;69992;60.170;24.692;2024-01-10T07:36:47;101851.13;;;-5.36;34.10
80640;BME280;69992;60.170;24.692;2024-01-10T07:39:01;101850.89;;;-4.49;34.11
80640;BME280;69992;60.170;24.692;2024-01-10T07:41:27;101862.57;;;-5.47;34.09
80640;BME280;69992;60.170;24.692;2024-01-10T07:43:53;101866.62;;;-4.49;34.13
80640;BME280;69992;60.170;24.692;2024-01-10T07:46:22;101863.88;;;-4.49;34.13
80640;BME280;69992;60.170;24.692;2024-01-10T07:48:45;101856.68;;;-5.40;34.10
80640;BME280;69992;60.170;24.692;2024-01-10T07:51:10;101850.27;;;-5.37;34.10
80640;BME280;69992;60.170;24.692;2024-01-10T07:53:36;101850.41;;;-3.28;34.09
80640;BME280;69992;60.170;24.692;2024-01-10T07:56:01;101845.84;;;-3.23;34.07
80640;BME280;69992;60.170;24.692;2024-01-10T07:58:27;101832.86;;;-3.16;34.06
80640;BME280;69992;60.170;24.692;2024-01-10T08:00:53;101824.85;;;-4.12;34.06
80640;BME280;69992;60.170;24.692;2024-01-10T08:03:19;101819.13;;;-4.04;34.06
80640;BME280;69992;60.170;24.692;2024-01-10T08:05:45;101812.85;;;-4.85;34.01
80640;BME280;69992;60.170;24.692;2024-01-10T08:08:11;101805.81;;;-4.78;33.99
80640;BME280;69992;60.170;24.692;2024-01-10T08:10:35;101813.79;;;-4.77;33.97
80640;BME280;69992;60.170;24.692;2024-01-10T08:13:01;101807.50;;;-2.89;34.03
80640;BME280;69992;60.170;24.692;2024-01-10T08:15:30;101798.51;;;-4.78;34.01
80640;BME280;69992;60.170;24.692;2024-01-10T08:17:53;101796.23;;;-2.72;33.98
80640;BME280;69992;60.170;24.692;2024-01-10T08:20:19;101784.41;;;-4.59;33.98
80640;BME280;69992;60.170;24.692;2024-01-10T08:22:44;101779.16;;;-4.53;33.97
80640;BME280;69992;60.170;24.692;2024-01-10T08:25:09;101765.46;;;-3.50;33.99
80640;BME280;69992;60.170;24.692;2024-01-10T08:27:35;101760.64;;;-4.43;34.00
80640;BME280;69992;60.170;24.692;2024-01-10T08:30:01;101761.23;;;-4.41;33.99
80640;BME280;69992;60.170;24.692;2024-01-10T08:32:27;101760.47;;;-2.40;34.00
80640;BME280;69992;60.170;24.692;2024-01-10T08:34:53;101765.88;;;-4.25;33.99
80640;BME280;69992;60.170;24.692;2024-01-10T08:37:19;101754.70;;;-3.17;33.99
80640;BME280;69992;60.170;24.692;2024-01-10T08:39:44;101738.34;;;-4.03;33.95
80640;BME280;69992;60.170;24.692;2024-01-10T08:42:10;101712.69;;;-3.93;33.95
80640;BME280;69992;60.170;24.692;2024-01-10T08:44:36;101709.34;;;-3.90;33.95
80640;BME280;69992;60.170;24.692;2024-01-10T08:47:02;101704.75;;;-3.83;33.95
80640;BME280;69992;60.170;24.692;2024-01-10T08:49:28;101702.80;;;-4.70;33.93
80640;BME280;69992;60.170;24.692;2024-01-10T08:51:54;101726.28;;;-3.86;33.93
80640;BME280;69992;60.170;24.692;2024-01-10T08:54:20;101716.37;;;-3.91;34.01
80640;BME280;69992;60.170;24.692;2024-01-10T08:56:45;101701.23;;;-3.85;34.00
80640;BME280;69992;60.170;24.692;2024-01-10T08:59:11;101685.66;;;-3.78;33.98
80640;BME280;69992;60.170;24.692;2024-01-10T09:01:37;101689.03;;;-3.80;33.97
80640;BME280;69992;60.170;24.692;2024-01-10T09:04:03;101677.10;;;-3.78;33.99
80640;BME280;69992;60.170;24.692;2024-01-10T09:06:28;101677.26;;;-4.83;34.02
80640;BME280;69992;60.170;24.692;2024-01-10T09:08:54;101671.43;;;-4.81;34.06
80640;BME280;69992;60.170;24.692;2024-01-10T09:11:20;101671.45;;;-3.74;34.04
80640;BME280;69992;60.170;24.692;2024-01-10T09:13:46;101678.52;;;-4.68;34.03
80640;BME280;69992;60.170;24.692;2024-01-10T09:16:12;101678.63;;;-3.71;34.05
80640;BME280;69992;60.170;24.692;2024-01-10T09:18:38;101676.66;;;-3.67;34.06
80640;BME280;69992;60.170;24.692;2024-01-10T09:21:04;101671.81;;;-4.57;34.05
80640;BME280;69992;60.170;24.692;2024-01-10T09:23:29;101672.15;;;-3.60;34.07
80640;BME280;69992;60.170;24.692;2024-01-10T09:25:55;101676.79;;;-3.64;34.09
80640;BME280;69992;60.170;24.692;2024-01-10T09:28:21;101674.71;;;-3.81;34.13
80640;BME280;69992;60.170;24.692;2024-01-10T09:30:47;101658.88;;;-3.82;34.18
80640;BME280;69992;60.170;24.692;2024-01-10T09:33:13;101649.53;;;-3.74;34.16
80640;BME280;69992;60.170;24.692;2024-01-10T09:35:38;101654.50;;;-3.65;34.16
80640;BME280;69992;60.170;24.692;2024-01-10T09:38:04;101648.95;;;-4.48;34.13
80640;BME280;69992;60.170;24.692;2024-01-10T09:40:30;101638.48;;;-3.36;34.10
80640;BME280;69992;60.170;24.692;2024-01-10T09:42:56;101624.90;;;-3.30;34.10
80640;BME280;69992;60.170;24.692;2024-01-10T09:45:22;101614.81;;;-3.32;34.12
80640;BME280;69992;60.170;24.692;2024-01-10T09:47:49;101610.38;;;-3.31;34.09
80640;BME280;69992;60.170;24.692;2024-01-10T09:50:14;101618.89;;;-3.32;34.11
80640;BME280;69992;60.170;24.692;2024-01-10T09:52:42;101612.32;;;-3.36;34.13
80640;BME280;69992;60.170;24.692;2024-01-10T09:55:06;101598.19;;;-3.33;34.16
80640;BME280;69992;60.170;24.692;2024-01-10T09:57:34;101588.08;;;-4.19;34.12
80640;BME280;69992;60.170;24.692;2024-01-10T09:59:56;101592.45;;;-3.15;34.13
80640;BME280;69992;60.170;24.692;2024-01-10T10:02:23;101581.92;;;-3.17;34.14
80640;BME280;69992;60.170;24.692;2024-01-10T10:04:54;101570.82;;;-4.20;34.17
80640;BME280;69992;60.170;24.692;2024-01-10T10:07:14;101570.50;;;-3.25;34.19
80640;BME280;69992;60.170;24.692;2024-01-10T10:09:40;101580.30;;;-4.29;34.21
80640;BME280;69992;60.170;24.692;2024-01-10T10:12:06;101577.94;;;-3.49;34.24
80640;BME280;69992;60.170;24.692;2024-01-10T10:14:31;101583.95;;;-3.54;34.27
80640;BME280;69992;60.170;24.692;2024-01-10T10:19:24;101609.40;;;-3.53;34.21
80640;BME280;69992;60.170;24.692;2024-01-10T10:21:49;101592.23;;;-3.59;34.25
80640;BME280;69992;60.170;24.692;2024-01-10T10:24:15;101589.74;;;-3.79;34.32
80640;BME280;69992;60.170;24.692;2024-01-10T10:26:41;101574.22;;;-3.79;34.36
80640;BME280;69992;60.170;24.692;2024-01-10T10:29:07;101566.89;;;-2.65;34.32
80640;BME280;69992;60.170;24.692;2024-01-10T10:31:32;101572.30;;;-2.49;33.75
80640;BME280;69992;60.170;24.692;2024-01-10T10:33:59;101575.44;;;-2.81;33.85
80640;BME280;69992;60.170;24.692;2024-01-10T10:36:24;101568.39;;;-3.28;34.10
80640;BME280;69992;60.170;24.692;2024-01-10T10:38:50;101562.86;;;-3.59;34.25
80640;BME280;69992;60.170;24.692;2024-01-10T10:41:16;101555.36;;;-3.63;34.31
80640;BME280;69992;60.170;24.692;2024-01-10T10:43:41;101548.85;;;-3.60;34.34
80640;BME280;69992;60.170;24.692;2024-01-10T10:46:08;101551.52;;;-3.51;34.32
80640;BME280;69992;60.170;24.692;2024-01-10T10:48:33;101535.85;;;-3.45;34.30
80640;BME280;69992;60.170;24.692;2024-01-10T10:51:03;101520.95;;;-3.45;34.31
80640;BME280;69992;60.170;24.692;2024-01-10T10:53:26;101509.21;;;-3.07;34.51
80640;BME280;69992;60.170;24.692;2024-01-10T10:55:51;101510.89;;;-2.56;34.30
80640;BME280;69992;60.170;24.692;2024-01-10T10:58:26;101517.71;;;-3.38;34.20
80640;BME280;69992;60.170;24.692;2024-01-10T11:00:45;101509.72;;;-3.38;34.18
80640;BME280;69992;60.170;24.692;2024-01-10T11:03:10;101500.30;;;-3.35;34.15
80640;BME280;69992;60.170;24.692;2024-01-10T11:05:35;101504.02;;;-2.37;34.14
80640;BME280;69992;60.170;24.692;2024-01-10T11:08:03;101494.17;;;-3.33;34.13
80640;BME280;69992;60.170;24.692;2024-01-10T11:10:31;101478.95;;;-2.54;34.16
80640;BME280;69992;60.170;24.692;2024-01-10T11:13:07;101478.98;;;-2.78;34.26
80640;BME280;69992;60.170;24.692;2024-01-10T11:15:29;101471.26;;;-3.88;34.27
80640;BME280;69992;60.170;24.692;2024-01-10T11:17:57;101457.92;;;-3.82;34.27
80640;BME280;69992;60.170;24.692;2024-01-10T11:20:14;101447.63;;;-4.65;34.21
80640;BME280;69992;60.170;24.692;2024-01-10T11:22:48;101451.72;;;-3.58;34.17
80640;BME280;69992;60.170;24.692;2024-01-10T11:25:00;101448.59;;;-2.68;34.20
80640;BME280;69992;60.170;24.692;2024-01-10T11:27:27;101448.05;;;-3.69;34.23
80640;BME280;69992;60.170;24.692;2024-01-10T11:29:51;101449.04;;;-3.70;34.27
80640;BME280;69992;60.170;24.692;2024-01-10T11:32:21;101445.39;;;-2.67;34.26
80640;BME280;69992;60.170;24.692;2024-01-10T11:34:49;101446.52;;;-3.54;34.24
80640;BME280;69992;60.170;24.692;2024-01-10T11:37:10;101455.65;;;-3.57;34.26
80640;BME280;69992;60.170;24.692;2024-01-10T11:39:35;101447.97;;;-3.62;34.27
80640;BME280;69992;60.170;24.692;2024-01-10T11:42:01;101435.61;;;-3.74;34.31
80640;BME280;69992;60.170;24.692;2024-01-10T11:44:27;101437.17;;;-3.71;34.35
80640;BME280;69992;60.170;24.692;2024-01-10T11:46:53;101438.91;;;-3.63;34.31
80640;BME280;69992;60.170;24.692;2024-01-10T11:49:19;101431.20;;;-3.71;34.34
80640;BME280;69992;60.170;24.692;2024-01-10T11:51:44;101426.51;;;-3.94;34.41
80640;BME280;69992;60.170;24.692;2024-01-10T11:54:09;101424.16;;;-3.09;34.45
80640;BME280;69992;60.170;24.692;2024-01-10T11:56:38;101419.66;;;-4.04;34.45
80640;BME280;69992;60.170;24.692;2024-01-10T11:59:07;101419.12;;;-3.95;34.42
80640;BME280;69992;60.170;24.692;2024-01-10T12:01:27;101413.80;;;-2.91;34.39
80640;BME280;69992;60.170;24.692;2024-01-10T12:03:56;101404.54;;;-3.97;34.42
80640;BME280;69992;60.170;24.692;2024-01-10T12:06:19;101396.60;;;-3.14;34.47
80640;BME280;69992;60.170;24.692;2024-01-10T12:08:44;101385.78;;;-4.27;34.52
80640;BME280;69992;60.170;24.692;2024-01-10T12:11:10;101390.94;;;-3.31;34.51
80640;BME280;69992;60.170;24.692;2024-01-10T12:13:36;101396.34;;;-5.29;34.52
80640;BME280;69992;60.170;24.692;2024-01-10T12:16:02;101391.81;;;-4.34;34.52
80640;BME280;69992;60.170;24.692;2024-01-10T12:18:27;101392.52;;;-3.46;34.57
80640;BME280;69992;60.170;24.692;2024-01-10T12:20:53;101391.24;;;-4.60;34.63
80640;BME280;69992;60.170;24.692;2024-01-10T12:23:19;101384.12;;;-3.78;34.68
80640;BME280;69992;60.170;24.692;2024-01-10T12:25:45;101371.27;;;-3.68;34.66
80640;BME280;69992;60.170;24.692;2024-01-10T12:28:15;101371.62;;;-3.62;34.62
80640;BME280;69992;60.170;24.692;2024-01-10T12:30:36;101363.46;;;-4.48;34.59
80640;BME280;69992;60.170;24.692;2024-01-10T12:33:02;101357.72;;;-4.50;34.57